Time;durP1;ratioP1;P1;durP2;ratioP2;P2;SDS_P1;SDS_P2;PMS_P1;PMS_P2;Temp;Humidity;BMP_temperature;BMP_pressure;BME280_temperature;BME280_humidity;BME280_pressure;Samples;Min_cycle;Max_cycle;Signal;HPM_P1;HPM_P2
2022/04/12 00:01:00;;;;;;;33.45;20.25;;;;;;;;;;4939120;29;20019;-52
2022/04/12 00:03:26;;;;;;;37.15;19.83;;;;;;;;;;4939368;29;20470;-51
2022/04/12 00:05:53;;;;;;;39.08;21.08;;;;;;;;;;4939812;29;20103;-49
2022/04/12 00:08:19;;;;;;;43.03;23.50;;;;;;;;;;4939749;29;20020;-52
2022/04/12 00:10:45;;;;;;;48.35;25.88;;;;;;;;;;4939364;29;20035;-53
2022/04/12 00:13:12;;;;;;;47.90;25.58;;;;;;;;;;4939531;29;20027;-55
2022/04/12 00:15:38;;;;;;;48.35;26.70;;;;;;;;;;4939847;29;20034;-54
2022/04/12 00:20:49;;;;;;;52.45;28.58;;;;;;;;;;4939271;29;20063;-54
2022/04/12 00:23:16;;;;;;;55.72;29.73;;;;;;;;;;4938724;29;20071;-52
2022/04/12 00:25:44;;;;;;;59.88;31.90;;;;;;;;;;4939332;29;20035;-55
2022/04/12 00:28:11;;;;;;;61.55;32.38;;;;;;;;;;4939005;29;20086;-52
2022/04/12 00:30:37;;;;;;;61.78;32.35;;;;;;;;;;4938710;29;20028;-51
2022/04/12 00:33:04;;;;;;;61.35;33.45;;;;;;;;;;4938915;29;20024;-51
2022/04/12 00:35:30;;;;;;;59.85;34.17;;;;;;;;;;4938764;29;20524;-51
2022/04/12 00:37:56;;;;;;;60.40;31.05;;;;;;;;;;4938847;29;20034;-51
2022/04/12 00:40:26;;;;;;;54.28;30.50;;;;;;;;;;4938920;29;20481;-52
2022/04/12 00:42:53;;;;;;;51.45;29.77;;;;;;;;;;4939071;29;20381;-54
2022/04/12 00:45:19;;;;;;;60.03;30.42;;;;;;;;;;4938323;29;20790;-54
2022/04/12 00:47:46;;;;;;;47.78;26.10;;;;;;;;;;4938897;29;20512;-53
2022/04/12 00:50:13;;;;;;;53.20;28.45;;;;;;;;;;4939051;29;20078;-54
2022/04/12 00:52:42;;;;;;;52.00;31.13;;;;;;;;;;4938184;29;20140;-52
2022/04/12 00:55:08;;;;;;;51.15;29.27;;;;;;;;;;4938820;29;20028;-51
2022/04/12 00:57:34;;;;;;;51.53;28.00;;;;;;;;;;4938400;29;20049;-55
2022/04/12 01:00:01;;;;;;;45.33;27.02;;;;;;;;;;4938078;29;20024;-54
2022/04/12 01:02:28;;;;;;;40.78;24.35;;;;;;;;;;4939152;29;20042;-53
2022/04/12 01:04:54;;;;;;;43.13;23.15;;;;;;;;;;4938018;29;20032;-54
2022/04/12 01:07:20;;;;;;;37.55;22.20;;;;;;;;;;4938415;29;20477;-53
2022/04/12 01:09:46;;;;;;;40.25;21.60;;;;;;;;;;4939065;29;20032;-54
2022/04/12 01:12:13;;;;;;;44.28;25.23;;;;;;;;;;4938220;29;20548;-52
2022/04/12 01:14:39;;;;;;;49.13;24.75;;;;;;;;;;4938497;29;20035;-54
2022/04/12 01:17:06;;;;;;;43.72;21.95;;;;;;;;;;4938428;29;20031;-53
2022/04/12 01:19:32;;;;;;;38.15;20.70;;;;;;;;;;4938531;29;20111;-52
2022/04/12 01:22:05;;;;;;;39.65;22.00;;;;;;;;;;4938151;29;20078;-54
2022/04/12 01:24:32;;;;;;;40.80;21.88;;;;;;;;;;4938380;29;20093;-54
2022/04/12 01:26:58;;;;;;;37.13;20.73;;;;;;;;;;4937924;29;20028;-53
2022/04/12 01:29:25;;;;;;;68.65;32.05;;;;;;;;;;4937974;29;20028;-54
2022/04/12 01:31:51;;;;;;;40.90;23.08;;;;;;;;;;4937911;29;20028;-53
2022/04/12 01:34:17;;;;;;;43.30;23.10;;;;;;;;;;4938171;29;20036;-53
2022/04/12 01:36:43;;;;;;;49.20;24.92;;;;;;;;;;4938138;29;20035;-48
2022/04/12 01:39:09;;;;;;;43.25;23.83;;;;;;;;;;4937752;29;20031;-52
2022/04/12 01:41:36;;;;;;;42.58;22.73;;;;;;;;;;4937506;29;20484;-54
2022/04/12 01:44:02;;;;;;;44.47;23.13;;;;;;;;;;4937828;29;20050;-53
2022/04/12 01:46:28;;;;;;;44.17;22.42;;;;;;;;;;4937862;29;20051;-53
2022/04/12 01:48:54;;;;;;;41.78;22.45;;;;;;;;;;4937310;29;20034;-54
2022/04/12 01:51:20;;;;;;;37.92;18.98;;;;;;;;;;4937918;29;20082;-52
2022/04/12 01:53:46;;;;;;;43.25;21.02;;;;;;;;;;4937568;29;20027;-54
2022/04/12 01:56:12;;;;;;;36.58;18.85;;;;;;;;;;4937447;29;20385;-52
2022/04/12 01:58:39;;;;;;;32.25;16.50;;;;;;;;;;4937689;29;20042;-54
2022/04/12 02:01:05;;;;;;;29.77;15.35;;;;;;;;;;4936792;29;20020;-53
2022/04/12 02:03:31;;;;;;;26.05;14.13;;;;;;;;;;4937523;29;20059;-55
2022/04/12 02:05:57;;;;;;;25.45;13.95;;;;;;;;;;4937286;29;20034;-52
2022/04/12 02:08:23;;;;;;;25.50;13.20;;;;;;;;;;4936614;29;20020;-54
2022/04/12 02:10:50;;;;;;;25.02;12.77;;;;;;;;;;4937656;29;20024;-54
2022/04/12 02:13:19;;;;;;;23.58;11.45;;;;;;;;;;4937279;29;20024;-53
2022/04/12 02:15:45;;;;;;;24.27;11.23;;;;;;;;;;4936840;29;20106;-53
2022/04/12 02:18:11;;;;;;;27.73;12.70;;;;;;;;;;4937385;29;20034;-55
2022/04/12 02:20:37;;;;;;;34.00;17.98;;;;;;;;;;4937309;29;20477;-51
2022/04/12 02:23:03;;;;;;;39.08;18.83;;;;;;;;;;4936979;29;20032;-54
2022/04/12 02:25:29;;;;;;;38.33;20.02;;;;;;;;;;4937192;29;20032;-52
2022/04/12 02:27:55;;;;;;;35.05;19.80;;;;;;;;;;4936825;29;20027;-52
2022/04/12 02:30:22;;;;;;;40.00;20.45;;;;;;;;;;4936498;29;20500;-48
2022/04/12 02:32:48;;;;;;;37.20;20.23;;;;;;;;;;4936986;29;20035;-53
2022/04/12 02:35:14;;;;;;;37.53;20.58;;;;;;;;;;4936974;29;20047;-54
2022/04/12 02:37:40;;;;;;;40.90;21.33;;;;;;;;;;4936556;29;20355;-52
2022/04/12 02:40:06;;;;;;;49.03;23.88;;;;;;;;;;4936897;29;20480;-50
2022/04/12 02:42:33;;;;;;;47.78;23.52;;;;;;;;;;4936948;29;20024;-53
2022/04/12 02:44:59;;;;;;;43.25;23.55;;;;;;;;;;4936515;29;20054;-51
2022/04/12 02:47:25;;;;;;;46.78;23.33;;;;;;;;;;4936070;29;20473;-48
2022/04/12 02:49:52;;;;;;;42.35;22.98;;;;;;;;;;4936601;29;20569;-51
2022/04/12 02:52:19;;;;;;;45.28;22.83;;;;;;;;;;4936567;29;20048;-51
2022/04/12 02:54:45;;;;;;;37.28;22.17;;;;;;;;;;4936738;29;20024;-52
2022/04/12 02:57:11;;;;;;;40.83;19.17;;;;;;;;;;4936450;29;20023;-51
2022/04/12 02:59:37;;;;;;;36.63;20.10;;;;;;;;;;4936668;29;20027;-53
2022/04/12 03:02:03;;;;;;;37.67;20.73;;;;;;;;;;4936708;29;20501;-54
2022/04/12 03:04:29;;;;;;;34.05;19.10;;;;;;;;;;4935950;29;20042;-54
2022/04/12 03:06:55;;;;;;;48.58;22.65;;;;;;;;;;4936345;29;20023;-54
2022/04/12 03:09:22;;;;;;;32.58;18.75;;;;;;;;;;4936519;29;20049;-54
2022/04/12 03:11:48;;;;;;;32.22;17.67;;;;;;;;;;4935921;29;20024;-55
2022/04/12 03:14:14;;;;;;;30.52;17.35;;;;;;;;;;4936473;29;20036;-55
2022/04/12 03:16:42;;;;;;;31.95;18.52;;;;;;;;;;4936457;29;20024;-54
2022/04/12 03:19:08;;;;;;;37.13;18.35;;;;;;;;;;4936240;29;20028;-51
2022/04/12 03:21:34;;;;;;;34.47;18.83;;;;;;;;;;4936269;29;20097;-53
2022/04/12 03:24:01;;;;;;;44.00;21.45;;;;;;;;;;4935925;29;20051;-50
2022/04/12 03:26:27;;;;;;;39.65;20.58;;;;;;;;;;4935704;29;20035;-51
2022/04/12 03:28:53;;;;;;;43.78;20.75;;;;;;;;;;4936197;29;20032;-51
2022/04/12 03:31:20;;;;;;;35.95;19.50;;;;;;;;;;4936219;29;20028;-49
2022/04/12 03:33:46;;;;;;;34.88;19.02;;;;;;;;;;4936001;29;20046;-54
2022/04/12 03:36:13;;;;;;;42.60;20.65;;;;;;;;;;4936262;29;20071;-52
2022/04/12 03:38:48;;;;;;;35.22;21.15;;;;;;;;;;4936263;29;20020;-51
2022/04/12 03:41:14;;;;;;;42.63;22.35;;;;;;;;;;4936562;29;20052;-49
2022/04/12 03:43:41;;;;;;;38.47;21.90;;;;;;;;;;4936322;29;20067;-55
2022/04/12 03:46:07;;;;;;;40.03;21.42;;;;;;;;;;4935939;29;20094;-52
2022/04/12 03:48:33;;;;;;;48.42;26.30;;;;;;;;;;4936226;29;20023;-53
2022/04/12 03:50:59;;;;;;;36.47;21.13;;;;;;;;;;4935343;29;20028;-54
2022/04/12 03:53:25;;;;;;;35.92;20.05;;;;;;;;;;4934837;29;20094;-54
2022/04/12 03:55:51;;;;;;;36.65;21.30;;;;;;;;;;4935707;29;20042;-52
2022/04/12 03:58:19;;;;;;;43.00;21.15;;;;;;;;;;4935835;29;20059;-53
2022/04/12 04:00:46;;;;;;;40.20;22.70;;;;;;;;;;4935914;29;20087;-48
2022/04/12 04:03:12;;;;;;;45.03;22.40;;;;;;;;;;4935790;29;20030;-50
2022/04/12 04:05:38;;;;;;;57.42;26.75;;;;;;;;;;4935656;29;20062;-54
2022/04/12 04:08:04;;;;;;;59.00;27.60;;;;;;;;;;4935641;29;20030;-54
2022/04/12 04:10:30;;;;;;;58.38;30.38;;;;;;;;;;4935332;29;20032;-51
2022/04/12 04:12:56;;;;;;;59.78;29.48;;;;;;;;;;4935512;29;20079;-53
2022/04/12 04:15:22;;;;;;;66.95;32.25;;;;;;;;;;4935452;29;20028;-50
2022/04/12 04:17:49;;;;;;;55.38;31.10;;;;;;;;;;4935211;29;20496;-52
2022/04/12 04:20:16;;;;;;;55.65;29.38;;;;;;;;;;4935828;29;20429;-51
2022/04/12 04:22:42;;;;;;;66.45;33.70;;;;;;;;;;4935502;29;20030;-51
2022/04/12 04:25:09;;;;;;;72.57;35.60;;;;;;;;;;4935866;29;20497;-56
2022/04/12 04:27:39;;;;;;;66.32;33.30;;;;;;;;;;4935795;29;20425;-52
2022/04/12 04:30:08;;;;;;;82.25;38.03;;;;;;;;;;4934534;29;20024;-53
2022/04/12 04:32:34;;;;;;;70.53;35.20;;;;;;;;;;4937118;29;20082;-54
2022/04/12 04:35:00;;;;;;;52.97;26.17;;;;;;;;;;4936971;29;20082;-55
2022/04/12 04:37:27;;;;;;;99.22;45.15;;;;;;;;;;4937882;29;20038;-48
2022/04/12 04:39:53;;;;;;;89.03;41.45;;;;;;;;;;4938927;29;20043;-51
2022/04/12 04:42:23;;;;;;;78.70;39.33;;;;;;;;;;4938839;29;20024;-50
2022/04/12 04:44:50;;;;;;;75.82;37.63;;;;;;;;;;4939020;29;20032;-50
2022/04/12 04:47:16;;;;;;;71.47;34.75;;;;;;;;;;4938991;29;20024;-51
2022/04/12 04:49:42;;;;;;;73.82;36.13;;;;;;;;;;4938663;29;20027;-55
2022/04/12 04:52:08;;;;;;;72.05;32.88;;;;;;;;;;4938689;29;20059;-55
2022/04/12 04:54:35;;;;;;;59.10;30.73;;;;;;;;;;4938880;29;20020;-53
2022/04/12 04:57:01;;;;;;;58.78;28.65;;;;;;;;;;4937269;29;20027;-64
2022/04/12 04:59:27;;;;;;;44.97;24.80;;;;;;;;;;4938936;29;20023;-54
2022/04/12 05:01:53;;;;;;;52.63;25.90;;;;;;;;;;4938629;29;20023;-54
2022/04/12 05:04:19;;;;;;;56.05;24.27;;;;;;;;;;4938226;29;20028;-50
2022/04/12 05:06:45;;;;;;;51.28;24.98;;;;;;;;;;4937857;29;20036;-54
2022/04/12 05:09:12;;;;;;;48.28;23.92;;;;;;;;;;4938598;29;20028;-50
2022/04/12 05:11:38;;;;;;;39.63;19.55;;;;;;;;;;4937912;29;20053;-53
2022/04/12 05:14:04;;;;;;;44.28;22.10;;;;;;;;;;4938616;29;20036;-51
2022/04/12 05:16:30;;;;;;;35.30;18.40;;;;;;;;;;4938626;29;20023;-53
2022/04/12 05:18:56;;;;;;;34.30;16.05;;;;;;;;;;4937620;29;20023;-53
2022/04/12 05:21:22;;;;;;;32.88;15.57;;;;;;;;;;4937669;29;20024;-50
2022/04/12 05:23:48;;;;;;;33.80;17.02;;;;;;;;;;4938282;29;20038;-54
2022/04/12 05:26:14;;;;;;;66.57;33.63;;;;;;;;;;4938224;29;20016;-54
2022/04/12 05:28:40;;;;;;;46.25;19.95;;;;;;;;;;4937059;29;20358;-54
2022/04/12 05:31:07;;;;;;;42.55;20.90;;;;;;;;;;4937818;29;20030;-55
2022/04/12 05:33:33;;;;;;;42.60;20.88;;;;;;;;;;4937995;29;20027;-53
2022/04/12 05:35:59;;;;;;;40.33;18.85;;;;;;;;;;4937749;29;20028;-67
2022/04/12 05:38:25;;;;;;;43.42;20.10;;;;;;;;;;4937544;29;20060;-56
2022/04/12 05:40:51;;;;;;;38.22;19.10;;;;;;;;;;4938034;29;20422;-55
2022/04/12 05:43:17;;;;;;;37.30;18.58;;;;;;;;;;4936986;29;20031;-53
2022/04/12 05:45:43;;;;;;;41.35;17.92;;;;;;;;;;4937772;29;20050;-55
2022/04/12 05:48:09;;;;;;;33.20;18.23;;;;;;;;;;4937104;29;20019;-54
2022/04/12 05:50:35;;;;;;;32.58;17.75;;;;;;;;;;4937772;29;20512;-54
2022/04/12 05:53:02;;;;;;;31.33;17.75;;;;;;;;;;4937154;29;20055;-51
2022/04/12 05:55:28;;;;;;;23.85;13.57;;;;;;;;;;4936808;29;20091;-51
2022/04/12 05:57:56;;;;;;;24.70;13.60;;;;;;;;;;4937205;29;20039;-53
2022/04/12 06:00:23;;;;;;;23.90;12.45;;;;;;;;;;4936793;29;20071;-51
2022/04/12 06:02:49;;;;;;;23.48;11.73;;;;;;;;;;4937363;29;20019;-55
2022/04/12 06:05:16;;;;;;;27.40;12.30;;;;;;;;;;4937339;29;20083;-53
2022/04/12 06:07:43;;;;;;;23.88;12.00;;;;;;;;;;4937253;29;20039;-51
2022/04/12 06:10:10;;;;;;;23.45;12.85;;;;;;;;;;4937218;29;20050;-55
2022/04/12 06:12:36;;;;;;;27.67;14.57;;;;;;;;;;4937714;29;20035;-55
2022/04/12 06:15:02;;;;;;;44.40;25.20;;;;;;;;;;4936994;29;20055;-53
2022/04/12 06:17:30;;;;;;;54.40;29.88;;;;;;;;;;4937052;29;20031;-51
2022/04/12 06:20:05;;;;;;;59.70;32.95;;;;;;;;;;4936715;29;20441;-55
2022/04/12 06:22:32;;;;;;;57.03;32.10;;;;;;;;;;4936980;29;20474;-57
2022/04/12 06:24:58;;;;;;;56.78;32.33;;;;;;;;;;4937181;29;20106;-52
2022/04/12 06:27:37;;;;;;;60.25;32.90;;;;;;;;;;4936860;29;20024;-54
2022/04/12 06:30:07;;;;;;;46.28;27.70;;;;;;;;;;4937177;29;20350;-56
2022/04/12 06:32:33;;;;;;;56.30;29.73;;;;;;;;;;4936787;29;20024;-54
2022/04/12 06:35:00;;;;;;;65.60;29.92;;;;;;;;;;4936369;29;20034;-53
2022/04/12 06:37:26;;;;;;;60.50;32.85;;;;;;;;;;4936877;29;20059;-53
2022/04/12 06:39:53;;;;;;;51.60;29.33;;;;;;;;;;4937004;29;20024;-55
2022/04/12 06:42:19;;;;;;;42.35;23.75;;;;;;;;;;4936852;29;20024;-53
2022/04/12 06:44:45;;;;;;;37.33;21.15;;;;;;;;;;4936827;29;20608;-54
2022/04/12 06:47:12;;;;;;;51.10;27.90;;;;;;;;;;4936881;29;20032;-54
2022/04/12 06:49:38;;;;;;;49.40;29.17;;;;;;;;;;4936569;29;20067;-55
2022/04/12 06:52:04;;;;;;;57.38;30.77;;;;;;;;;;4936620;29;20048;-53
2022/04/12 06:54:30;;;;;;;57.67;31.65;;;;;;;;;;4936367;29;20087;-53
2022/04/12 06:56:56;;;;;;;45.85;27.08;;;;;;;;;;4936242;29;20493;-53
2022/04/12 06:59:24;;;;;;;52.92;28.02;;;;;;;;;;4936730;29;20027;-54
2022/04/12 07:01:50;;;;;;;50.50;28.10;;;;;;;;;;4936401;29;20023;-54
2022/04/12 07:04:16;;;;;;;37.65;23.98;;;;;;;;;;4936609;29;20500;-54
2022/04/12 07:06:42;;;;;;;41.47;24.48;;;;;;;;;;4936550;29;20469;-52
2022/04/12 07:09:11;;;;;;;49.13;25.40;;;;;;;;;;4935992;29;20020;-54
2022/04/12 07:11:38;;;;;;;44.03;24.67;;;;;;;;;;4936848;29;20226;-52
2022/04/12 07:14:04;;;;;;;42.40;24.13;;;;;;;;;;4936169;29;20032;-52
2022/04/12 07:16:30;;;;;;;46.20;25.08;;;;;;;;;;4936174;29;20084;-50
2022/04/12 07:18:56;;;;;;;44.85;27.05;;;;;;;;;;4936620;29;20095;-53
2022/04/12 07:21:22;;;;;;;43.92;24.38;;;;;;;;;;4936455;29;20031;-54
2022/04/12 07:23:50;;;;;;;51.78;27.33;;;;;;;;;;4936018;29;20028;-55
2022/04/12 07:26:17;;;;;;;44.60;26.10;;;;;;;;;;4936091;29;20059;-51
2022/04/12 07:28:43;;;;;;;45.85;24.95;;;;;;;;;;4936085;29;20038;-50
2022/04/12 07:31:09;;;;;;;40.35;24.95;;;;;;;;;;4935736;29;20034;-53
2022/04/12 07:33:35;;;;;;;45.42;25.33;;;;;;;;;;4936178;29;20031;-50
2022/04/12 07:36:01;;;;;;;44.17;23.88;;;;;;;;;;4936127;29;20051;-50
2022/04/12 07:38:27;;;;;;;46.47;26.45;;;;;;;;;;4935892;29;20067;-54
2022/04/12 07:40:53;;;;;;;41.72;22.70;;;;;;;;;;4935936;29;20489;-53
2022/04/12 07:43:20;;;;;;;59.60;28.80;;;;;;;;;;4936195;29;20035;-54
2022/04/12 07:45:46;;;;;;;43.83;23.08;;;;;;;;;;4935911;29;20111;-53
2022/04/12 07:48:15;;;;;;;41.80;22.92;;;;;;;;;;4935833;29;20027;-56
2022/04/12 07:50:41;;;;;;;36.50;19.02;;;;;;;;;;4936465;29;20042;-56
2022/04/12 07:53:07;;;;;;;29.00;17.38;;;;;;;;;;4936054;29;20058;-56
2022/04/12 07:55:34;;;;;;;34.85;17.52;;;;;;;;;;4936062;29;20028;-55
2022/04/12 07:58:00;;;;;;;28.17;14.30;;;;;;;;;;4935886;29;20098;-55
2022/04/12 08:00:26;;;;;;;23.55;12.82;;;;;;;;;;4935840;29;20034;-51
2022/04/12 08:02:53;;;;;;;24.77;12.93;;;;;;;;;;4936627;29;20405;-55
2022/04/12 08:05:19;;;;;;;27.67;12.85;;;;;;;;;;4935951;29;20027;-51
2022/04/12 08:07:48;;;;;;;26.33;13.00;;;;;;;;;;4938346;29;20023;-51
2022/04/12 08:10:15;;;;;;;21.05;12.68;;;;;;;;;;4939555;29;20027;-54
2022/04/12 08:12:42;;;;;;;23.58;14.20;;;;;;;;;;4939418;29;20027;-50
2022/04/12 08:15:08;;;;;;;23.30;13.10;;;;;;;;;;4939280;29;20083;-51
2022/04/12 08:17:35;;;;;;;22.90;13.23;;;;;;;;;;4939367;29;20473;-48
2022/04/12 08:20:01;;;;;;;28.80;15.10;;;;;;;;;;4939241;29;20023;-50
2022/04/12 08:22:27;;;;;;;24.98;14.00;;;;;;;;;;4939938;29;20024;-51
2022/04/12 08:24:53;;;;;;;27.63;14.98;;;;;;;;;;4939773;29;20032;-52
2022/04/12 08:27:19;;;;;;;29.77;15.90;;;;;;;;;;4939212;29;20342;-51
2022/04/12 08:29:46;;;;;;;22.08;14.02;;;;;;;;;;4939268;29;20028;-48
2022/04/12 08:32:12;;;;;;;25.95;13.27;;;;;;;;;;4939356;29;20369;-51
2022/04/12 08:34:38;;;;;;;28.15;15.00;;;;;;;;;;4938627;29;20092;-50
2022/04/12 08:37:07;;;;;;;21.42;13.07;;;;;;;;;;4939238;29;20062;-50
2022/04/12 08:39:34;;;;;;;23.17;12.48;;;;;;;;;;4939201;29;20385;-53
2022/04/12 08:42:04;;;;;;;18.48;11.98;;;;;;;;;;4938626;29;20086;-51
2022/04/12 08:44:31;;;;;;;20.93;11.87;;;;;;;;;;4938840;29;20508;-52
2022/04/12 08:46:58;;;;;;;23.27;13.55;;;;;;;;;;4938919;29;20087;-50
2022/04/12 08:49:24;;;;;;;31.08;17.08;;;;;;;;;;4939529;29;20024;-53
2022/04/12 08:51:51;;;;;;;27.35;14.23;;;;;;;;;;4938799;29;20088;-53
2022/04/12 08:54:17;;;;;;;31.55;18.08;;;;;;;;;;4938596;29;20034;-54
2022/04/12 08:56:45;;;;;;;21.75;12.70;;;;;;;;;;4939193;29;20024;-49
2022/04/12 08:59:13;;;;;;;23.13;12.27;;;;;;;;;;4938809;29;20044;-51
2022/04/12 09:01:41;;;;;;;20.35;10.30;;;;;;;;;;4938254;29;20397;-52
2022/04/12 09:04:07;;;;;;;18.02;10.52;;;;;;;;;;4939004;29;20031;-53
2022/04/12 09:06:33;;;;;;;20.38;10.68;;;;;;;;;;4938656;29;20082;-51
2022/04/12 09:09:19;;;;;;;18.27;10.02;;;;;;;;;;4938409;29;20045;-54
2022/04/12 09:12:00;;;;;;;15.05;7.97;;;;;;;;;;4938570;29;20023;-56
2022/04/12 09:14:35;;;;;;;9.13;6.60;;;;;;;;;;4938516;29;20175;-54
2022/04/12 09:17:02;;;;;;;11.30;6.15;;;;;;;;;;4938341;29;20024;-53
2022/04/12 09:19:39;;;;;;;10.63;6.05;;;;;;;;;;4938234;29;20070;-55
2022/04/12 09:22:11;;;;;;;11.18;6.60;;;;;;;;;;4938184;29;20032;-51
2022/04/12 09:24:38;;;;;;;11.85;6.40;;;;;;;;;;4938305;29;20039;-52
2022/04/12 09:27:04;;;;;;;15.27;7.85;;;;;;;;;;4938640;29;20031;-50
2022/04/12 09:29:30;;;;;;;9.73;4.30;;;;;;;;;;4938645;29;20035;-51
2022/04/12 09:32:00;;;;;;;8.65;4.00;;;;;;;;;;4937986;29;20106;-49
2022/04/12 09:34:26;;;;;;;13.18;8.82;;;;;;;;;;4938176;29;20039;-52
2022/04/12 09:36:52;;;;;;;7.22;3.25;;;;;;;;;;4937835;29;20103;-52
2022/04/12 09:39:22;;;;;;;9.48;4.13;;;;;;;;;;4938126;29;20024;-52
2022/04/12 09:41:48;;;;;;;8.43;3.92;;;;;;;;;;4937771;29;20058;-49
2022/04/12 09:44:17;;;;;;;6.90;3.67;;;;;;;;;;4937859;29;20390;-53
2022/04/12 09:46:44;;;;;;;7.35;2.88;;;;;;;;;;4937757;29;20028;-48
2022/04/12 09:49:11;;;;;;;6.75;2.80;;;;;;;;;;4937725;29;20050;-50
2022/04/12 09:51:37;;;;;;;5.57;2.80;;;;;;;;;;4937480;29;20086;-49
2022/04/12 09:54:07;;;;;;;7.30;2.17;;;;;;;;;;4937727;29;20047;-52
2022/04/12 09:56:34;;;;;;;3.88;1.55;;;;;;;;;;4937784;29;20523;-49
2022/04/12 09:59:06;;;;;;;4.18;2.30;;;;;;;;;;4937149;29;20047;-49
2022/04/12 10:01:39;;;;;;;11.02;5.45;;;;;;;;;;4938345;29;20494;-49
2022/04/12 10:04:07;;;;;;;4.68;2.17;;;;;;;;;;4937292;29;20032;-49
2022/04/12 10:06:38;;;;;;;29.00;14.25;;;;;;;;;;4936804;29;20052;-48
2022/04/12 10:09:07;;;;;;;5.32;2.10;;;;;;;;;;4937456;29;20065;-53
2022/04/12 10:11:33;;;;;;;95.25;43.55;;;;;;;;;;4936665;29;20027;-50
2022/04/12 10:14:02;;;;;;;11.13;5.18;;;;;;;;;;4937107;29;20484;-51
2022/04/12 10:16:29;;;;;;;6.68;2.13;;;;;;;;;;4937195;29;20445;-50
2022/04/12 10:18:55;;;;;;;3.28;1.50;;;;;;;;;;4936724;29;20024;-52
2022/04/12 10:21:26;;;;;;;4.05;1.38;;;;;;;;;;4937580;29;20027;-52
2022/04/12 10:23:52;;;;;;;;;;;;;;;;;;4937683;29;20384;-48
2022/04/12 10:26:22;;;;;;;2.92;1.60;;;;;;;;;;4936703;29;20005;-48
2022/04/12 10:28:57;;;;;;;4.50;1.70;;;;;;;;;;4937608;29;20079;-49
2022/04/12 10:31:30;;;;;;;2.85;1.95;;;;;;;;;;4936952;29;20034;-48
2022/04/12 10:34:02;;;;;;;2.90;1.58;;;;;;;;;;4936563;29;20039;-49
2022/04/12 10:36:47;;;;;;;5.53;2.30;;;;;;;;;;4937649;29;20024;-50
2022/04/12 10:39:13;;;;;;;4.85;2.85;;;;;;;;;;4936512;29;20028;-49
2022/04/12 10:41:42;;;;;;;3.60;1.50;;;;;;;;;;4937259;29;20023;-51
2022/04/12 10:44:19;;;;;;;3.70;1.55;;;;;;;;;;4936632;29;20378;-50
2022/04/12 10:46:47;;;;;;;5.68;2.85;;;;;;;;;;4936640;29;20028;-46
2022/04/12 10:49:13;;;;;;;4.32;1.67;;;;;;;;;;4936954;29;20024;-49
2022/04/12 10:51:40;;;;;;;4.00;1.63;;;;;;;;;;4936535;29;20043;-52
2022/04/12 10:54:10;;;;;;;3.03;1.50;;;;;;;;;;4936368;29;20496;-48
2022/04/12 10:56:36;;;;;;;3.28;1.45;;;;;;;;;;4936514;29;20038;-49
2022/04/12 10:59:02;;;;;;;2.40;1.17;;;;;;;;;;4936664;29;20107;-53
2022/04/12 11:01:33;;;;;;;3.85;1.15;;;;;;;;;;4936391;29;20020;-53
2022/04/12 11:04:03;;;;;;;3.00;1.52;;;;;;;;;;4937534;29;20102;-49
2022/04/12 11:06:30;;;;;;;4.95;1.95;;;;;;;;;;4936414;29;20031;-53
2022/04/12 11:09:17;;;;;;;2.45;1.58;;;;;;;;;;4936266;29;20480;-54
2022/04/12 11:11:45;;;;;;;7.68;1.77;;;;;;;;;;4936604;29;20083;-54
2022/04/12 11:14:25;;;;;;;3.42;1.67;;;;;;;;;;4936092;29;20035;-53
2022/04/12 11:16:54;;;;;;;1.92;1.40;;;;;;;;;;4936522;29;20028;-54
2022/04/12 11:19:24;;;;;;;3.17;1.33;;;;;;;;;;4936771;29;20144;-54
2022/04/12 11:21:56;;;;;;;3.08;1.48;;;;;;;;;;4936053;29;20054;-53
2022/04/12 11:24:23;;;;;;;5.32;1.98;;;;;;;;;;4936160;29;20110;-51
2022/04/12 11:27:00;;;;;;;7.35;3.75;;;;;;;;;;4936128;29;20367;-54
2022/04/12 11:29:27;;;;;;;3.97;2.40;;;;;;;;;;4935938;29;20421;-51
2022/04/12 11:31:54;;;;;;;4.05;2.30;;;;;;;;;;4936103;29;20028;-54
2022/04/12 11:34:21;;;;;;;5.55;1.95;;;;;;;;;;4935950;29;20465;-55
2022/04/12 11:36:50;;;;;;;5.38;2.22;;;;;;;;;;4936054;29;20030;-53
2022/04/12 11:39:26;;;;;;;7.78;2.13;;;;;;;;;;4936832;29;20033;-52
2022/04/12 11:42:03;;;;;;;7.50;2.40;;;;;;;;;;4938322;29;20030;-55
2022/04/12 11:44:30;;;;;;;4.20;2.10;;;;;;;;;;4940577;29;20079;-54
2022/04/12 11:47:04;;;;;;;5.35;2.33;;;;;;;;;;4940087;29;20042;-53
2022/04/12 11:49:34;;;;;;;5.75;2.42;;;;;;;;;;4939727;29;20023;-53
2022/04/12 11:52:01;;;;;;;3.13;2.50;;;;;;;;;;4939961;29;20494;-49
2022/04/12 11:54:31;;;;;;;4.65;2.45;;;;;;;;;;4940074;29;20031;-51
2022/04/12 11:57:00;;;;;;;4.80;3.20;;;;;;;;;;4939246;29;20024;-54
2022/04/12 11:59:27;;;;;;;6.38;2.67;;;;;;;;;;4940029;29;20094;-52
2022/04/12 12:01:59;;;;;;;3.63;2.28;;;;;;;;;;4939722;29;20050;-52
2022/04/12 12:04:29;;;;;;;7.38;2.33;;;;;;;;;;4938558;29;20027;-52
2022/04/12 12:06:59;;;;;;;6.85;2.83;;;;;;;;;;4939411;29;20024;-53
2022/04/12 12:09:26;;;;;;;6.65;2.85;;;;;;;;;;4939449;29;20038;-53
2022/04/12 12:11:52;;;;;;;3.75;2.13;;;;;;;;;;4939428;29;20055;-51
2022/04/12 12:14:22;;;;;;;3.28;2.35;;;;;;;;;;4939552;29;20039;-49
2022/04/12 12:17:04;;;;;;;4.55;2.20;;;;;;;;;;4939446;29;20541;-50
2022/04/12 12:19:33;;;;;;;3.88;2.10;;;;;;;;;;4939418;29;20032;-50
2022/04/12 12:22:00;;;;;;;6.20;2.20;;;;;;;;;;4939432;29;20020;-54
2022/04/12 12:24:26;;;;;;;6.22;2.22;;;;;;;;;;4939125;29;20533;-51
2022/04/12 12:26:56;;;;;;;4.15;1.70;;;;;;;;;;4939390;29;20052;-56
2022/04/12 12:29:23;;;;;;;6.35;2.30;;;;;;;;;;4939369;29;20463;-52
2022/04/12 12:31:49;;;;;;;3.60;2.10;;;;;;;;;;4939003;29;20034;-49
2022/04/12 12:34:27;;;;;;;5.03;2.30;;;;;;;;;;4939570;29;20179;-54
2022/04/12 12:36:53;;;;;;;6.00;2.30;;;;;;;;;;4939317;29;20124;-53
2022/04/12 12:39:19;;;;;;;6.18;2.47;;;;;;;;;;4938964;29;20028;-62
2022/04/12 12:41:46;;;;;;;4.80;2.72;;;;;;;;;;4939522;29;20474;-57
2022/04/12 12:44:13;;;;;;;6.45;2.47;;;;;;;;;;4939416;29;20035;-55
2022/04/12 12:46:39;;;;;;;3.45;2.22;;;;;;;;;;4938774;29;20043;-54
2022/04/12 12:49:08;;;;;;;5.55;3.25;;;;;;;;;;4938834;29;20024;-55
2022/04/12 12:51:36;;;;;;;4.03;2.40;;;;;;;;;;4938879;29;20086;-50
2022/04/12 12:54:03;;;;;;;6.63;3.10;;;;;;;;;;4938483;29;20066;-52
2022/04/12 12:56:35;;;;;;;4.80;2.38;;;;;;;;;;4938847;29;20483;-52
2022/04/12 12:59:20;;;;;;;6.15;3.47;;;;;;;;;;4938956;29;20055;-50
2022/04/12 13:01:50;;;;;;;4.63;2.95;;;;;;;;;;4938507;29;20414;-54
2022/04/12 13:04:23;;;;;;;4.05;3.00;;;;;;;;;;4938846;29;20031;-53
2022/04/12 13:07:05;;;;;;;5.20;2.50;;;;;;;;;;4938476;29;20028;-50
2022/04/12 13:09:32;;;;;;;4.15;2.70;;;;;;;;;;4938732;29;20106;-52
2022/04/12 13:11:58;;;;;;;5.40;4.10;;;;;;;;;;4938626;29;20500;-49
2022/04/12 13:14:24;;;;;;;4.05;2.63;;;;;;;;;;4938372;29;20542;-51
2022/04/12 13:16:50;;;;;;;4.50;2.28;;;;;;;;;;4938291;29;20449;-54
2022/04/12 13:19:29;;;;;;;4.40;2.47;;;;;;;;;;4938759;29;20366;-53
2022/04/12 13:21:56;;;;;;;3.40;2.13;;;;;;;;;;4938015;29;20032;-53
2022/04/12 13:24:23;;;;;;;6.32;2.50;;;;;;;;;;4938319;29;20063;-52
2022/04/12 13:26:50;;;;;;;5.00;2.30;;;;;;;;;;4937775;29;20016;-52
2022/04/12 13:29:17;;;;;;;6.78;3.13;;;;;;;;;;4937973;29;20381;-53
2022/04/12 13:31:43;;;;;;;3.20;2.58;;;;;;;;;;4938240;29;20028;-53
2022/04/12 13:34:09;;;;;;;3.00;2.13;;;;;;;;;;4938008;29;20027;-49
2022/04/12 13:36:35;;;;;;;4.95;2.33;;;;;;;;;;4936299;29;20019;-50
2022/04/12 13:39:03;;;;;;;6.25;2.50;;;;;;;;;;4936753;29;20087;-54
2022/04/12 13:41:30;;;;;;;5.72;2.60;;;;;;;;;;4936510;29;20355;-54
2022/04/12 13:43:56;;;;;;;3.80;2.20;;;;;;;;;;4936861;29;20031;-55
2022/04/12 13:46:23;;;;;;;5.22;2.22;;;;;;;;;;4936787;29;20020;-50
2022/04/12 13:48:49;;;;;;;3.50;2.40;;;;;;;;;;4936167;29;20034;-54
2022/04/12 13:51:16;;;;;;;6.10;2.70;;;;;;;;;;4936278;29;20020;-52
2022/04/12 13:53:42;;;;;;;4.55;2.22;;;;;;;;;;4937086;29;20024;-52
2022/04/12 13:56:08;;;;;;;5.30;2.30;;;;;;;;;;4937147;29;20118;-54
2022/04/12 13:58:34;;;;;;;5.90;2.55;;;;;;;;;;4937491;29;20426;-50
2022/04/12 14:01:00;;;;;;;2.97;2.20;;;;;;;;;;4937256;29;20386;-51
2022/04/12 14:03:27;;;;;;;101.30;50.67;;;;;;;;;;4937199;29;20019;-50
2022/04/12 14:05:54;;;;;;;12.00;6.55;;;;;;;;;;4936750;29;20035;-53
2022/04/12 14:08:20;;;;;;;3.90;2.97;;;;;;;;;;4937633;29;20071;-53
2022/04/12 14:10:46;;;;;;;134.73;68.18;;;;;;;;;;4936689;29;20035;-53
2022/04/12 14:13:12;;;;;;;8.82;3.83;;;;;;;;;;4936657;29;20036;-53
2022/04/12 14:15:38;;;;;;;5.03;2.42;;;;;;;;;;4936619;29;20051;-54
2022/04/12 14:18:04;;;;;;;3.35;1.95;;;;;;;;;;4937059;29;20020;-49
2022/04/12 14:20:30;;;;;;;7.70;4.82;;;;;;;;;;4937350;29;20147;-55
2022/04/12 14:22:57;;;;;;;5.20;3.10;;;;;;;;;;4936839;29;20028;-52
2022/04/12 14:25:24;;;;;;;3.50;2.30;;;;;;;;;;4936957;29;20058;-50
2022/04/12 14:27:50;;;;;;;9.88;5.25;;;;;;;;;;4937015;29;20390;-52
2022/04/12 14:30:16;;;;;;;5.82;2.88;;;;;;;;;;4936641;29;20030;-52